LS226 EHRD-EGGD
Flight info
| Callsign | LS226 |
|---|---|
| Flight time | N/A |
| Altitude | 28000 |
| Route | ABNED L980 LAM L179 ICTAM |
| Aircraft | B738/M-SDE2E3FGHIRWXY/LB1 |
Departure
| Time | 2026-04-29 21:28 |
|---|---|
| Airport | Rotterdam The Hague Airport (EHRD) |
Arrival
| Time | N/A |
|---|---|
| Airport | Bristol Airport (EGGD) |
| Time | Latitude | Longitude | Altitude | Speed | Heading |
|---|---|---|---|---|---|
| 2026-04-29 21:15 | 51.95184 | 4.43411 | -4 ft | 0 kts | 322° |
| 2026-04-29 21:26 | 51.95184 | 4.43410 | -4 ft | 0 kts | 322° |
| 2026-04-29 21:26 | 51.95209 | 4.43376 | -4 ft | 7 kts | 305° |
| 2026-04-29 21:26 | 51.95189 | 4.43271 | -4 ft | 13 kts | 238° |
| 2026-04-29 21:26 | 51.95133 | 4.43112 | -5 ft | 19 kts | 244° |
| 2026-04-29 21:27 | 51.95148 | 4.42910 | -7 ft | 19 kts | 321° |
| 2026-04-29 21:27 | 51.95253 | 4.42934 | -7 ft | 19 kts | 54° |
| 2026-04-29 21:27 | 51.95430 | 4.43379 | -4 ft | 86 kts | 58° |
| 2026-04-29 21:27 | 51.95892 | 4.44537 | 49 ft | 150 kts | 58° |
| 2026-04-29 21:28 | 51.96452 | 4.45815 | 916 ft | 144 kts | 51° |
| 2026-04-29 21:28 | 51.97176 | 4.47084 | 1613 ft | 157 kts | 56° |
| 2026-04-29 21:28 | 51.97601 | 4.48779 | 2294 ft | 171 kts | 73° |
| 2026-04-29 21:28 | 51.98102 | 4.50611 | 2958 ft | 191 kts | 56° |
| 2026-04-29 21:29 | 51.99199 | 4.51946 | 3637 ft | 215 kts | 21° |
| 2026-04-29 21:29 | 52.00735 | 4.52167 | 4482 ft | 233 kts | 356° |
| 2026-04-29 21:29 | 52.02296 | 4.51364 | 5356 ft | 250 kts | 332° |
| 2026-04-29 21:29 | 52.03496 | 4.49297 | 6198 ft | 266 kts | 296° |
| 2026-04-29 21:30 | 52.03808 | 4.46340 | 7012 ft | 273 kts | 258° |
| 2026-04-29 21:30 | 52.03065 | 4.43624 | 7894 ft | 265 kts | 222° |
| 2026-04-29 21:30 | 52.01654 | 4.41809 | 8803 ft | 260 kts | 206° |
| 2026-04-29 21:30 | 52.00103 | 4.40275 | 9650 ft | 264 kts | 206° |
| 2026-04-29 21:31 | 51.98563 | 4.38646 | 10475 ft | 269 kts | 210° |
| 2026-04-29 21:31 | 51.97085 | 4.36806 | 11238 ft | 277 kts | 220° |
| 2026-04-29 21:31 | 51.96019 | 4.34175 | 11882 ft | 292 kts | 249° |
| 2026-04-29 21:31 | 51.95602 | 4.30895 | 12367 ft | 308 kts | 263° |
| 2026-04-29 21:32 | 51.95417 | 4.27320 | 12853 ft | 324 kts | 266° |
| 2026-04-29 21:32 | 51.95230 | 4.23598 | 13328 ft | 340 kts | 265° |
| 2026-04-29 21:32 | 51.94984 | 4.19741 | 13783 ft | 357 kts | 264° |
| 2026-04-29 21:32 | 51.94670 | 4.15623 | 14234 ft | 373 kts | 263° |
| 2026-04-29 21:33 | 51.94316 | 4.11379 | 14664 ft | 389 kts | 263° |
| 2026-04-29 21:33 | 51.93934 | 4.06987 | 15064 ft | 405 kts | 262° |
| 2026-04-29 21:33 | 51.93503 | 4.02387 | 15444 ft | 421 kts | 262° |
| 2026-04-29 21:33 | 51.93035 | 3.97602 | 15811 ft | 436 kts | 262° |
| 2026-04-29 21:34 | 51.92547 | 3.92698 | 16254 ft | 448 kts | 262° |
| 2026-04-29 21:34 | 51.92053 | 3.87741 | 16866 ft | 455 kts | 262° |
| 2026-04-29 21:34 | 51.91546 | 3.82651 | 17513 ft | 459 kts | 262° |
| 2026-04-29 21:34 | 51.91033 | 3.77501 | 18149 ft | 464 kts | 262° |
| 2026-04-29 21:35 | 51.90521 | 3.72361 | 18693 ft | 453 kts | 262° |
| 2026-04-29 21:35 | 51.90032 | 3.67432 | 18151 ft | 454 kts | 262° |
| 2026-04-29 21:35 | 51.89562 | 3.62293 | 15636 ft | 501 kts | 263° |